createdAt,value
2023-01-30T00:00:13.492Z,-0.89
2023-01-30T00:05:17.168Z,-0.72
2023-01-30T00:10:20.505Z,-0.66
2023-01-30T00:15:23.482Z,-0.49
2023-01-30T00:20:26.658Z,-0.40
2023-01-30T00:25:31.711Z,-0.26
2023-01-30T00:30:34.879Z,0.09
2023-01-30T00:35:37.976Z,0.08
2023-01-30T00:40:42.161Z,0.27
2023-01-30T00:46:03.967Z,0.27
2023-01-30T00:51:07.367Z,0.32
2023-01-30T00:56:11.425Z,0.48
2023-01-30T01:01:14.861Z,0.48
2023-01-30T01:06:18.371Z,0.40
2023-01-30T01:11:27.392Z,0.63
2023-01-30T01:16:32.227Z,0.66
2023-01-30T01:21:35.732Z,0.57
2023-01-30T01:26:42.071Z,0.43
2023-01-30T01:31:47.452Z,0.32
2023-01-30T01:36:53.758Z,0.17
2023-01-30T01:41:57.708Z,-0.36
2023-01-30T01:47:00.777Z,-0.10
2023-01-30T01:52:06.782Z,-0.11
2023-01-30T01:57:18.704Z,-0.25
2023-01-30T02:02:22.630Z,-0.21
2023-01-30T02:07:29.750Z,-0.34
2023-01-30T02:12:34.183Z,-0.18
2023-01-30T02:17:37.952Z,-0.14
2023-01-30T02:23:18.205Z,-0.25
2023-01-30T02:28:39.999Z,-0.42
2023-01-30T02:34:11.801Z,-0.49
2023-01-30T02:39:39.221Z,-0.37
2023-01-30T02:45:01.585Z,-0.37
2023-01-30T02:50:14.642Z,-0.45
2023-01-30T02:55:27.243Z,-0.61
2023-01-30T03:00:38.953Z,-0.75
2023-01-30T03:06:17.090Z,-0.81
2023-01-30T03:11:25.357Z,-1.07
2023-01-30T03:16:39.966Z,-1.10
2023-01-30T03:21:45.260Z,-1.12
2023-01-30T03:27:11.620Z,-1.01
2023-01-30T03:32:14.566Z,-1.16
2023-01-30T03:37:18.220Z,-1.36
2023-01-30T03:42:21.499Z,-1.45
2023-01-30T03:47:25.403Z,-1.52
2023-01-30T03:52:30.086Z,-1.66
2023-01-30T03:57:33.070Z,-1.48
2023-01-30T04:02:39.144Z,-1.23
2023-01-30T04:07:42.213Z,-1.20
2023-01-30T04:12:47.821Z,-1.18
2023-01-30T04:17:52.045Z,-1.17
2023-01-30T04:23:31.054Z,-1.12
2023-01-30T04:28:35.171Z,-1.06
2023-01-30T04:33:40.419Z,-1.08
2023-01-30T04:38:45.384Z,-1.06
2023-01-30T04:43:48.965Z,-0.98
2023-01-30T04:49:10.330Z,-1.07
2023-01-30T04:54:13.720Z,-1.19
2023-01-30T04:59:18.472Z,-1.24
2023-01-30T05:04:24.418Z,-1.30
2023-01-30T05:09:27.963Z,-1.48
2023-01-30T05:14:30.928Z,-1.55
2023-01-30T05:19:34.316Z,-1.66
2023-01-30T05:24:37.366Z,-1.61
2023-01-30T05:29:40.407Z,-1.56
2023-01-30T05:34:43.614Z,-1.65
2023-01-30T05:39:46.634Z,-1.80
2023-01-30T05:44:49.939Z,-1.88
2023-01-30T05:49:53.713Z,-1.92
2023-01-30T05:54:56.739Z,-2.04
2023-01-30T06:00:00.928Z,-2.11
2023-01-30T06:05:04.265Z,-2.13
2023-01-30T06:10:08.217Z,-2.49
2023-01-30T06:15:11.963Z,-1.94
2023-01-30T06:20:16.056Z,-1.79
2023-01-30T06:25:19.780Z,-1.68
2023-01-30T06:30:24.331Z,-1.54
2023-01-30T06:35:27.931Z,-1.40
2023-01-30T06:40:31.503Z,-1.23
2023-01-30T06:45:34.958Z,-0.95
2023-01-30T06:50:38.820Z,-0.67
2023-01-30T06:55:42.787Z,-0.26
2023-01-30T07:00:47.193Z,-0.04
2023-01-30T07:05:50.299Z,0.87
2023-01-30T07:10:53.841Z,6.29
2023-01-30T07:15:57.909Z,9.99
2023-01-30T07:21:01.578Z,13.04
2023-01-30T07:26:06.386Z,14.64
2023-01-30T07:31:09.442Z,13.49
2023-01-30T07:36:12.910Z,14.07
2023-01-30T07:41:16.388Z,15.10
2023-01-30T07:46:19.617Z,14.95
2023-01-30T07:51:23.078Z,14.78
2023-01-30T07:56:26.537Z,14.15
2023-01-30T08:01:30.129Z,14.08
2023-01-30T08:06:37.400Z,14.25
2023-01-30T08:11:40.828Z,14.79
2023-01-30T08:16:43.960Z,14.84
2023-01-30T08:21:47.028Z,15.15
2023-01-30T08:26:50.623Z,14.82
2023-01-30T08:31:58.811Z,14.41
2023-01-30T08:37:02.220Z,14.69
2023-01-30T08:42:05.939Z,14.28
2023-01-30T08:47:09.088Z,14.56
2023-01-30T08:52:12.804Z,14.46
2023-01-30T08:57:16.605Z,14.61
2023-01-30T09:02:20.558Z,15.17
2023-01-30T09:07:23.709Z,14.44
2023-01-30T09:12:27.738Z,15.48
2023-01-30T09:17:30.876Z,15.23
2023-01-30T09:22:34.618Z,14.61
2023-01-30T09:27:37.793Z,14.23
2023-01-30T09:32:41.323Z,14.43
2023-01-30T09:37:53.596Z,13.78
2023-01-30T09:43:18.915Z,14.24
2023-01-30T09:48:32.815Z,14.43
2023-01-30T09:53:59.488Z,14.08
2023-01-30T09:59:05.699Z,14.41
2023-01-30T10:04:21.812Z,14.98
2023-01-30T10:09:51.958Z,13.24
2023-01-30T10:15:22.784Z,13.96
2023-01-30T10:20:49.547Z,14.28
2023-01-30T10:26:00.354Z,14.25
2023-01-30T10:31:26.697Z,14.82
2023-01-30T10:36:57.189Z,14.56
2023-01-30T10:42:13.410Z,14.84
2023-01-30T10:47:34.748Z,15.00
2023-01-30T10:52:54.227Z,14.53
2023-01-30T10:58:23.850Z,13.39
2023-01-30T11:03:33.316Z,12.61
2023-01-30T11:08:36.845Z,13.16
2023-01-30T11:13:39.843Z,12.49
2023-01-30T11:19:18.757Z,11.97
2023-01-30T11:24:17.820Z,12.68
2023-01-30T11:29:30.363Z,11.78
2023-01-30T11:34:33.983Z,11.61
2023-01-30T11:39:37.733Z,10.98
2023-01-30T11:44:42.792Z,10.52
2023-01-30T11:50:11.988Z,10.89
2023-01-30T11:55:21.444Z,11.39
2023-01-30T12:00:37.450Z,11.21
2023-01-30T12:05:44.543Z,11.71
2023-01-30T12:10:52.249Z,11.28
2023-01-30T12:16:26.096Z,11.27
2023-01-30T12:21:56.730Z,10.42
2023-01-30T12:27:21.991Z,10.33
2023-01-30T12:32:29.076Z,11.43
2023-01-30T12:38:16.420Z,13.24
2023-01-30T12:43:57.089Z,14.27
2023-01-30T12:49:22.192Z,14.63
2023-01-30T12:54:54.134Z,13.58
2023-01-30T13:00:22.274Z,12.68
2023-01-30T13:05:28.702Z,15.31
2023-01-30T13:10:33.829Z,15.56
2023-01-30T13:15:59.670Z,14.63
2023-01-30T13:21:14.221Z,16.07
2023-01-30T13:26:28.895Z,16.24
2023-01-30T13:31:39.266Z,14.48
2023-01-30T13:36:52.507Z,14.05
2023-01-30T13:41:58.078Z,15.68
2023-01-30T13:47:19.294Z,16.39
2023-01-30T13:53:03.117Z,16.64
2023-01-30T13:58:32.445Z,16.02
2023-01-30T14:03:35.595Z,15.81
2023-01-30T14:08:45.376Z,14.39
2023-01-30T14:13:53.900Z,13.37
2023-01-30T14:18:57.316Z,15.97
2023-01-30T14:24:02.840Z,15.92
2023-01-30T14:29:08.536Z,14.07
2023-01-30T14:34:45.992Z,14.04
2023-01-30T14:39:54.231Z,15.70
2023-01-30T14:44:58.947Z,14.89
2023-01-30T14:50:03.061Z,14.61
2023-01-30T14:55:15.554Z,14.34
2023-01-30T15:00:21.265Z,14.19
2023-01-30T15:05:37.575Z,15.08
2023-01-30T15:10:59.737Z,15.25
2023-01-30T15:16:23.798Z,12.41
2023-01-30T15:21:49.311Z,10.47
2023-01-30T15:27:21.001Z,9.63
2023-01-30T15:32:26.738Z,9.48
2023-01-30T15:37:37.428Z,8.63
2023-01-30T15:43:02.389Z,8.59
2023-01-30T15:48:29.332Z,8.32
2023-01-30T15:53:40.185Z,7.72
2023-01-30T15:58:44.965Z,7.27
2023-01-30T16:03:50.428Z,6.93
2023-01-30T16:09:03.189Z,6.62
2023-01-30T16:14:12.387Z,5.70
2023-01-30T16:19:37.628Z,5.85
2023-01-30T16:24:50.059Z,5.30
2023-01-30T16:29:58.631Z,4.98
2023-01-30T16:35:28.293Z,4.45
2023-01-30T16:40:44.574Z,4.23
2023-01-30T16:45:47.649Z,4.05
2023-01-30T16:51:19.507Z,3.88
2023-01-30T16:56:23.464Z,3.54
2023-01-30T17:01:42.112Z,3.35
2023-01-30T17:06:53.464Z,3.12
2023-01-30T17:11:56.466Z,2.92
2023-01-30T17:17:04.504Z,2.68
2023-01-30T17:22:24.648Z,2.52
2023-01-30T17:27:31.727Z,2.39
2023-01-30T17:32:35.139Z,2.32
2023-01-30T17:37:38.217Z,2.24
2023-01-30T17:42:41.216Z,2.17
2023-01-30T17:47:44.739Z,2.15
2023-01-30T17:52:51.287Z,1.99
2023-01-30T17:57:56.837Z,1.90
2023-01-30T18:03:00.294Z,1.77
2023-01-30T18:08:03.789Z,1.68
2023-01-30T18:13:07.248Z,1.46
2023-01-30T18:18:17.793Z,1.44
2023-01-30T18:23:22.482Z,1.29
2023-01-30T18:28:25.825Z,1.15
2023-01-30T18:33:29.509Z,1.17
2023-01-30T18:38:32.589Z,1.06
2023-01-30T18:43:36.138Z,1.02
2023-01-30T18:48:39.236Z,1.00
2023-01-30T18:53:44.319Z,0.88
2023-01-30T18:58:50.003Z,0.79
2023-01-30T19:04:02.750Z,0.65
2023-01-30T19:09:12.868Z,0.56
2023-01-30T19:14:16.443Z,0.49
2023-01-30T19:19:19.407Z,0.58
2023-01-30T19:24:23.907Z,0.47
2023-01-30T19:29:27.036Z,0.49
2023-01-30T19:34:30.170Z,0.43
2023-01-30T19:39:33.194Z,0.42
2023-01-30T19:44:37.981Z,0.50
2023-01-30T19:49:42.480Z,0.53
2023-01-30T19:54:47.811Z,0.63
2023-01-30T19:59:51.348Z,0.76
2023-01-30T20:04:55.320Z,0.64
2023-01-30T20:09:59.018Z,0.69
2023-01-30T20:15:03.747Z,0.65
2023-01-30T20:20:08.331Z,0.88
2023-01-30T20:25:17.205Z,1.02
2023-01-30T20:30:22.460Z,1.01
2023-01-30T20:35:27.460Z,1.26
2023-01-30T20:40:31.351Z,1.45
2023-01-30T20:45:34.359Z,1.67
2023-01-30T20:50:37.349Z,1.60
2023-01-30T20:55:42.409Z,1.73
2023-01-30T21:00:45.869Z,1.64
2023-01-30T21:05:59.567Z,1.61
2023-01-30T21:11:14.365Z,1.56
2023-01-30T21:16:24.028Z,1.52
2023-01-30T21:21:34.560Z,1.38
2023-01-30T21:26:41.400Z,1.50
2023-01-30T21:31:45.531Z,1.50
2023-01-30T21:37:09.262Z,1.37
2023-01-30T21:42:31.063Z,1.21
2023-01-30T21:47:34.735Z,1.00
2023-01-30T21:52:39.073Z,0.76
2023-01-30T21:57:42.424Z,0.69
2023-01-30T22:02:49.390Z,0.52
2023-01-30T22:07:52.424Z,0.57
2023-01-30T22:12:56.416Z,0.47
2023-01-30T22:18:00.668Z,0.18
2023-01-30T22:23:04.690Z,0.10
2023-01-30T22:28:10.224Z,0.17
2023-01-30T22:33:13.599Z,0.09
2023-01-30T22:38:17.304Z,0.25
2023-01-30T22:43:20.785Z,0.37
2023-01-30T22:48:24.317Z,0.23
2023-01-30T22:53:27.990Z,0.06
2023-01-30T22:58:31.508Z,0.05
2023-01-30T23:03:36.858Z,-0.08
2023-01-30T23:08:42.100Z,-0.19
2023-01-30T23:13:48.080Z,-0.30
2023-01-30T23:18:59.045Z,-0.28
2023-01-30T23:24:06.912Z,-0.31
2023-01-30T23:29:13.687Z,-0.44
2023-01-30T23:34:19.228Z,-0.72
2023-01-30T23:39:23.241Z,-0.53
2023-01-30T23:44:26.309Z,-0.60
2023-01-30T23:49:29.352Z,-0.71
2023-01-30T23:54:32.410Z,-0.65
2023-01-30T23:59:35.598Z,-0.75
